createdAt,value
2023-01-26T00:00:41.776Z,35.67
2023-01-26T00:01:45.224Z,29.95
2023-01-26T00:02:49.084Z,36.55
2023-01-26T00:03:52.730Z,32.92
2023-01-26T00:04:56.170Z,37.30
2023-01-26T00:06:04.937Z,36.55
2023-01-26T00:07:08.349Z,31.42
2023-01-26T00:08:11.367Z,34.17
2023-01-26T00:09:15.846Z,37.05
2023-01-26T00:10:18.414Z,34.95
2023-01-26T00:11:30.739Z,33.63
2023-01-26T00:12:39.723Z,32.80
2023-01-26T00:13:43.451Z,33.80
2023-01-26T00:14:52.739Z,33.88
2023-01-26T00:15:55.267Z,30.77
2023-01-26T00:17:04.739Z,34.60
2023-01-26T00:18:10.425Z,32.15
2023-01-26T00:19:13.860Z,28.35
2023-01-26T00:20:37.734Z,33.70
2023-01-26T00:21:46.792Z,35.13
2023-01-26T00:22:50.175Z,30.95
2023-01-26T00:23:54.202Z,33.85
2023-01-26T00:24:56.911Z,34.38
2023-01-26T00:26:00.354Z,35.28
2023-01-26T00:27:09.847Z,32.38
2023-01-26T00:28:13.236Z,36.33
2023-01-26T00:29:15.725Z,31.35
2023-01-26T00:30:19.960Z,37.33
2023-01-26T00:31:23.666Z,33.22
2023-01-26T00:32:33.756Z,34.83
2023-01-26T00:33:37.588Z,34.40
2023-01-26T00:34:41.043Z,35.17
2023-01-26T00:35:44.762Z,32.92
2023-01-26T00:36:48.199Z,30.38
2023-01-26T00:37:57.780Z,36.17
2023-01-26T00:39:02.799Z,32.40
2023-01-26T00:40:05.582Z,31.13
2023-01-26T00:41:08.998Z,31.63
2023-01-26T00:42:13.987Z,32.28
2023-01-26T00:43:24.943Z,35.03
2023-01-26T00:44:27.431Z,31.13
2023-01-26T00:45:30.827Z,31.33
2023-01-26T00:46:33.351Z,29.83
2023-01-26T00:47:36.795Z,32.13
2023-01-26T00:48:46.744Z,29.92
2023-01-26T00:49:50.113Z,29.92
2023-01-26T00:50:52.952Z,30.90
2023-01-26T00:52:02.778Z,32.08
2023-01-26T00:53:06.300Z,31.70
2023-01-26T00:54:10.049Z,27.90
2023-01-26T00:55:13.504Z,30.83
2023-01-26T00:56:15.998Z,31.63
2023-01-26T00:57:25.759Z,30.25
2023-01-26T00:58:28.250Z,30.30
2023-01-26T00:59:33.247Z,27.00
2023-01-26T01:00:36.853Z,27.48
2023-01-26T01:01:40.629Z,28.73
2023-01-26T01:02:50.737Z,26.00
2023-01-26T01:03:54.549Z,29.67
2023-01-26T01:04:57.959Z,31.77
2023-01-26T01:06:06.899Z,30.17
2023-01-26T01:07:10.357Z,34.80
2023-01-26T01:08:12.835Z,27.55
2023-01-26T01:09:16.489Z,32.08
2023-01-26T01:10:19.099Z,28.42
2023-01-26T01:11:28.768Z,32.63
2023-01-26T01:12:31.222Z,30.67
2023-01-26T01:13:34.679Z,26.83
2023-01-26T01:14:37.212Z,28.63
2023-01-26T01:15:40.720Z,28.98
2023-01-26T01:16:50.748Z,30.50
2023-01-26T01:17:54.558Z,28.42
2023-01-26T01:18:58.512Z,30.15
2023-01-26T01:20:22.763Z,28.10
2023-01-26T01:21:31.780Z,27.13
2023-01-26T01:22:35.267Z,30.08
2023-01-26T01:23:37.949Z,27.05
2023-01-26T01:24:47.765Z,28.23
2023-01-26T01:25:57.956Z,26.30
2023-01-26T01:27:01.426Z,25.85
2023-01-26T01:28:03.977Z,26.05
2023-01-26T01:29:07.404Z,28.60
2023-01-26T01:30:16.817Z,28.85
2023-01-26T01:31:20.303Z,26.73
2023-01-26T01:32:22.837Z,27.73
2023-01-26T01:33:26.644Z,28.58
2023-01-26T01:34:30.462Z,27.00
2023-01-26T01:35:42.770Z,28.23
2023-01-26T01:36:46.360Z,28.48
2023-01-26T01:37:48.829Z,24.88
2023-01-26T01:38:52.564Z,28.65
2023-01-26T01:39:55.101Z,29.80
2023-01-26T01:41:04.808Z,25.55
2023-01-26T01:42:07.409Z,28.88
2023-01-26T01:43:12.037Z,29.48
2023-01-26T01:44:20.033Z,31.27
2023-01-26T01:45:36.258Z,26.58
2023-01-26T01:46:46.937Z,26.88
2023-01-26T01:47:49.544Z,26.55
2023-01-26T01:48:55.543Z,26.58
2023-01-26T01:50:05.735Z,26.00
2023-01-26T01:51:10.508Z,26.90
2023-01-26T01:52:15.267Z,28.58
2023-01-26T01:53:24.741Z,25.17
2023-01-26T01:54:37.789Z,29.48
2023-01-26T01:55:40.370Z,26.85
2023-01-26T01:56:46.846Z,25.77
2023-01-26T01:57:51.951Z,26.23
2023-01-26T01:58:56.439Z,27.13
2023-01-26T02:00:07.745Z,25.08
2023-01-26T02:01:11.764Z,25.33
2023-01-26T02:02:14.912Z,25.63
2023-01-26T02:03:27.763Z,28.27
2023-01-26T02:04:30.504Z,26.15
2023-01-26T02:05:37.593Z,25.08
2023-01-26T02:06:42.991Z,30.80
2023-01-26T02:07:46.447Z,27.10
2023-01-26T02:08:57.750Z,26.77
2023-01-26T02:10:18.988Z,23.67
2023-01-26T02:11:30.775Z,29.13
2023-01-26T02:12:34.017Z,31.15
2023-01-26T02:13:44.738Z,28.10
2023-01-26T02:14:47.417Z,26.55
2023-01-26T02:15:51.550Z,30.83
2023-01-26T02:17:00.779Z,27.90
2023-01-26T02:18:05.693Z,27.85
2023-01-26T02:19:19.759Z,27.73
2023-01-26T02:20:33.936Z,31.00
2023-01-26T02:21:45.751Z,25.13
2023-01-26T02:22:52.869Z,25.10
2023-01-26T02:24:02.976Z,25.58
2023-01-26T02:25:13.780Z,30.65
2023-01-26T02:26:26.750Z,31.50
2023-01-26T02:27:29.379Z,24.92
2023-01-26T02:28:32.982Z,29.83
2023-01-26T02:29:35.529Z,30.30
2023-01-26T02:30:45.798Z,31.15
2023-01-26T02:31:55.773Z,30.63
2023-01-26T02:32:59.252Z,27.85
2023-01-26T02:34:01.704Z,27.27
2023-01-26T02:35:05.219Z,27.98
2023-01-26T02:36:14.750Z,27.55
2023-01-26T02:37:18.217Z,23.90
2023-01-26T02:38:22.566Z,29.17
2023-01-26T02:39:30.528Z,25.83
2023-01-26T02:40:37.256Z,25.40
2023-01-26T02:42:05.719Z,27.77
2023-01-26T02:43:15.794Z,26.42
2023-01-26T02:44:18.457Z,28.02
2023-01-26T02:45:22.640Z,28.88
2023-01-26T02:46:25.163Z,29.00
2023-01-26T02:47:35.143Z,23.55
2023-01-26T02:48:55.334Z,29.05
2023-01-26T02:49:58.821Z,27.25
2023-01-26T02:51:02.311Z,24.95
2023-01-26T02:52:05.348Z,26.10
2023-01-26T02:53:15.768Z,29.70
2023-01-26T02:54:33.152Z,29.50
2023-01-26T02:55:35.637Z,28.02
2023-01-26T02:56:40.968Z,29.60
2023-01-26T02:57:45.320Z,25.13
2023-01-26T02:58:55.755Z,23.20
2023-01-26T02:59:58.291Z,25.95
2023-01-26T03:01:08.758Z,28.08
2023-01-26T03:02:11.604Z,26.95
2023-01-26T03:03:16.500Z,25.92
2023-01-26T03:04:18.968Z,27.02
2023-01-26T03:05:28.738Z,26.52
2023-01-26T03:06:32.193Z,23.77
2023-01-26T03:07:35.034Z,33.45
2023-01-26T03:08:44.779Z,29.08
2023-01-26T03:09:47.469Z,30.30
2023-01-26T03:10:50.889Z,26.88
2023-01-26T03:11:53.418Z,31.60
2023-01-26T03:12:58.801Z,32.03
2023-01-26T03:14:07.757Z,35.58
2023-01-26T03:15:29.117Z,34.63
2023-01-26T03:16:32.584Z,34.55
2023-01-26T03:17:35.126Z,33.78
2023-01-26T03:18:56.133Z,37.08
2023-01-26T03:20:23.766Z,32.53
2023-01-26T03:21:51.566Z,33.03
2023-01-26T03:23:12.645Z,36.35
2023-01-26T03:24:34.085Z,35.47
2023-01-26T03:26:02.764Z,30.02
2023-01-26T03:27:23.997Z,31.63
2023-01-26T03:28:28.753Z,34.88
2023-01-26T03:29:37.995Z,33.97
2023-01-26T03:30:47.753Z,33.00
2023-01-26T03:31:56.744Z,32.58
2023-01-26T03:33:00.190Z,35.38
2023-01-26T03:34:02.815Z,34.10
2023-01-26T03:35:06.744Z,37.17
2023-01-26T03:36:15.791Z,36.03
2023-01-26T03:37:22.159Z,34.70
2023-01-26T03:38:24.643Z,31.80
2023-01-26T03:39:45.433Z,30.35
2023-01-26T03:41:06.716Z,34.10
2023-01-26T03:42:34.789Z,29.48
2023-01-26T03:43:57.222Z,33.80
2023-01-26T03:45:18.419Z,34.28
2023-01-26T03:46:45.745Z,31.40
2023-01-26T03:48:12.806Z,29.92
2023-01-26T03:49:34.077Z,30.95
2023-01-26T03:50:55.446Z,34.53
2023-01-26T03:52:16.279Z,31.10
2023-01-26T03:53:44.740Z,34.35
2023-01-26T03:55:12.671Z,30.80
2023-01-26T03:56:21.749Z,31.15
2023-01-26T03:57:31.811Z,30.40
2023-01-26T03:58:34.287Z,28.67
2023-01-26T03:59:39.172Z,34.53
2023-01-26T04:00:41.740Z,26.77
2023-01-26T04:02:03.982Z,34.05
2023-01-26T04:03:34.181Z,29.40
2023-01-26T04:04:55.418Z,26.90
2023-01-26T04:06:17.794Z,32.85
2023-01-26T04:07:38.845Z,29.35
2023-01-26T04:08:48.775Z,33.13
2023-01-26T04:09:51.266Z,27.20
2023-01-26T04:11:01.877Z,32.13
2023-01-26T04:12:05.556Z,33.33
2023-01-26T04:13:26.702Z,34.00
2023-01-26T04:14:49.457Z,35.15
2023-01-26T04:16:18.888Z,29.00
2023-01-26T04:17:39.861Z,38.30
2023-01-26T04:19:01.133Z,36.03
2023-01-26T04:20:28.745Z,32.20
2023-01-26T04:21:45.793Z,31.95
2023-01-26T04:22:49.249Z,32.33
2023-01-26T04:23:52.334Z,37.92
2023-01-26T04:24:57.308Z,34.85
2023-01-26T04:25:59.876Z,33.55
2023-01-26T04:27:09.821Z,36.33
2023-01-26T04:28:12.322Z,29.02
2023-01-26T04:29:16.632Z,33.50
2023-01-26T04:30:19.813Z,30.40
2023-01-26T04:31:24.630Z,32.58
2023-01-26T04:32:33.767Z,41.50
2023-01-26T04:33:37.204Z,36.97
2023-01-26T04:34:40.597Z,38.75
2023-01-26T04:35:43.078Z,35.15
2023-01-26T04:36:46.485Z,34.47
2023-01-26T04:37:55.788Z,32.35
2023-01-26T04:39:05.738Z,39.15
2023-01-26T04:40:08.987Z,34.95
2023-01-26T04:41:12.626Z,37.15
2023-01-26T04:42:15.138Z,36.70
2023-01-26T04:43:24.827Z,37.20
2023-01-26T04:44:27.347Z,35.65
2023-01-26T04:45:30.794Z,33.65
2023-01-26T04:46:34.609Z,39.25
2023-01-26T04:47:38.020Z,33.60
2023-01-26T04:48:46.760Z,29.15
2023-01-26T04:49:50.398Z,33.58
2023-01-26T04:50:54.708Z,34.17
2023-01-26T04:51:58.148Z,30.63
2023-01-26T04:53:01.594Z,35.30
2023-01-26T04:54:10.774Z,32.63
2023-01-26T04:55:14.174Z,32.38
2023-01-26T04:56:20.226Z,31.00
2023-01-26T04:57:24.831Z,30.63
2023-01-26T04:58:28.338Z,34.05
2023-01-26T04:59:37.777Z,35.17
2023-01-26T05:00:41.226Z,33.88
2023-01-26T05:01:45.105Z,34.95
2023-01-26T05:02:48.525Z,34.10
2023-01-26T05:03:51.059Z,33.92
2023-01-26T05:05:00.784Z,33.65
2023-01-26T05:06:03.281Z,32.05
2023-01-26T05:07:06.681Z,32.58
2023-01-26T05:08:09.177Z,37.53
2023-01-26T05:09:19.732Z,36.22
2023-01-26T05:10:22.252Z,30.98
2023-01-26T05:11:32.812Z,35.60
2023-01-26T05:12:35.394Z,32.03
2023-01-26T05:13:39.815Z,39.75
2023-01-26T05:14:42.329Z,35.88
2023-01-26T05:15:45.748Z,32.97
2023-01-26T05:16:56.118Z,40.45
2023-01-26T05:18:00.173Z,34.10
2023-01-26T05:19:02.893Z,31.42
2023-01-26T05:20:13.296Z,37.83
2023-01-26T05:21:30.980Z,37.30
2023-01-26T05:22:40.766Z,32.67
2023-01-26T05:23:44.304Z,42.05
2023-01-26T05:24:53.762Z,32.33
2023-01-26T05:25:57.171Z,35.90
2023-01-26T05:27:14.523Z,35.15
2023-01-26T05:28:24.775Z,33.03
2023-01-26T05:29:27.250Z,34.33
2023-01-26T05:30:30.691Z,34.72
2023-01-26T05:31:33.430Z,34.78
2023-01-26T05:32:40.341Z,30.10
2023-01-26T05:33:49.777Z,30.73
2023-01-26T05:34:53.167Z,32.35
2023-01-26T05:36:01.755Z,35.03
2023-01-26T05:37:05.271Z,33.38
2023-01-26T05:38:07.869Z,32.30
2023-01-26T05:39:17.770Z,37.72
2023-01-26T05:40:21.917Z,38.03
2023-01-26T05:41:25.329Z,38.20
2023-01-26T05:42:30.480Z,34.33
2023-01-26T05:43:33.950Z,28.63
2023-01-26T05:44:42.740Z,35.95
2023-01-26T05:45:46.333Z,34.00
2023-01-26T05:46:48.876Z,31.90
2023-01-26T05:47:59.799Z,31.30
2023-01-26T05:49:02.277Z,33.80
2023-01-26T05:50:05.946Z,34.65
2023-01-26T05:51:08.448Z,30.85
2023-01-26T05:52:12.781Z,32.55
2023-01-26T05:53:21.854Z,32.83
2023-01-26T05:54:25.261Z,34.67
2023-01-26T05:55:27.811Z,34.35
2023-01-26T05:56:31.250Z,34.60
2023-01-26T05:57:33.898Z,31.45
2023-01-26T05:58:43.817Z,35.53
2023-01-26T05:59:47.255Z,30.40
2023-01-26T06:00:56.771Z,29.02
2023-01-26T06:01:59.699Z,33.65
2023-01-26T06:03:04.477Z,34.50
2023-01-26T06:04:07.095Z,31.25
2023-01-26T06:05:17.841Z,32.63
2023-01-26T06:06:20.387Z,30.13
2023-01-26T06:07:23.809Z,31.80
2023-01-26T06:08:26.487Z,32.55
2023-01-26T06:09:29.913Z,30.88
2023-01-26T06:10:38.730Z,28.90
2023-01-26T06:11:42.159Z,32.30
2023-01-26T06:12:44.809Z,29.33
2023-01-26T06:13:48.783Z,27.70
2023-01-26T06:14:57.763Z,31.30
2023-01-26T06:16:02.564Z,32.08
2023-01-26T06:17:05.031Z,29.80
2023-01-26T06:18:09.712Z,26.33
2023-01-26T06:19:12.307Z,26.27
2023-01-26T06:20:22.807Z,25.63
2023-01-26T06:21:32.971Z,26.55
2023-01-26T06:22:35.503Z,28.77
2023-01-26T06:23:38.938Z,32.45
2023-01-26T06:24:47.847Z,30.10
2023-01-26T06:25:51.977Z,25.17
2023-01-26T06:26:54.676Z,29.17
2023-01-26T17:46:44.018Z,66.78
2023-01-26T17:47:46.785Z,71.53
2023-01-26T17:48:57.996Z,64.60
2023-01-26T17:50:07.010Z,69.35
2023-01-26T17:51:11.492Z,64.22
2023-01-26T17:52:14.566Z,70.05
2023-01-26T17:53:18.993Z,69.55
2023-01-26T17:54:22.771Z,74.97
2023-01-26T17:55:31.863Z,70.57
2023-01-26T17:56:41.994Z,73.95
2023-01-26T17:57:44.682Z,68.80
2023-01-26T17:58:49.883Z,70.22
2023-01-26T17:59:58.846Z,69.05
2023-01-26T18:01:02.316Z,60.90
2023-01-26T18:02:07.236Z,63.85
2023-01-26T18:03:10.748Z,69.53
2023-01-26T18:04:20.856Z,73.85
2023-01-26T18:05:24.350Z,68.43
2023-01-26T18:06:26.908Z,63.42
2023-01-26T18:07:30.339Z,70.35
2023-01-26T18:08:32.874Z,68.43
2023-01-26T18:09:42.902Z,71.47
2023-01-26T18:10:45.508Z,65.38
2023-01-26T18:11:49.963Z,66.65
2023-01-26T18:12:52.631Z,71.88
2023-01-26T18:13:57.701Z,74.32
2023-01-26T18:15:06.867Z,70.88
2023-01-26T18:16:17.961Z,69.22
2023-01-26T18:17:23.060Z,71.78
2023-01-26T18:18:26.246Z,81.07
2023-01-26T18:19:29.759Z,81.07
2023-01-26T18:20:32.360Z,76.90
2023-01-26T18:21:43.887Z,75.95
2023-01-26T18:22:47.333Z,74.45
2023-01-26T18:23:51.718Z,74.55
2023-01-26T18:24:54.187Z,79.82
2023-01-26T18:26:03.850Z,79.03
2023-01-26T18:27:13.939Z,71.95
2023-01-26T18:28:17.778Z,76.50
2023-01-26T18:29:21.247Z,63.10
2023-01-26T18:30:23.985Z,79.95
2023-01-26T18:31:28.540Z,77.55
2023-01-26T18:32:39.840Z,68.57
2023-01-26T18:33:43.359Z,78.70
2023-01-26T18:34:46.480Z,77.53
2023-01-26T18:35:49.930Z,80.95
2023-01-26T18:36:59.865Z,73.50
2023-01-26T18:38:03.345Z,74.22
2023-01-26T18:39:06.939Z,75.03
2023-01-26T18:40:19.924Z,74.03
2023-01-26T18:41:24.446Z,69.78
2023-01-26T18:42:26.991Z,71.25
2023-01-26T18:43:32.703Z,81.20
2023-01-26T18:44:36.168Z,74.60
2023-01-26T18:45:48.926Z,78.15
2023-01-26T18:47:12.980Z,71.07
2023-01-26T18:48:16.792Z,82.07
2023-01-26T18:49:20.185Z,78.38
2023-01-26T18:50:22.726Z,70.30
2023-01-26T18:51:26.185Z,68.68
2023-01-26T18:52:34.905Z,78.50
2023-01-26T18:53:40.158Z,80.30
2023-01-26T18:54:43.842Z,81.13
2023-01-26T18:55:46.399Z,77.82
2023-01-26T18:56:49.847Z,83.50
2023-01-26T18:58:01.867Z,69.85
2023-01-26T18:59:06.509Z,68.13
2023-01-26T19:00:09.650Z,72.18
2023-01-26T19:01:14.235Z,73.53
2023-01-26T19:02:18.131Z,74.35
2023-01-26T19:03:28.986Z,82.68
2023-01-26T19:04:32.641Z,82.50
2023-01-26T19:05:36.253Z,73.10
2023-01-26T19:06:39.696Z,78.05
2023-01-26T19:07:42.384Z,84.93
2023-01-26T19:08:52.936Z,68.00
2023-01-26T19:09:56.354Z,76.50
2023-01-26T19:11:04.616Z,79.07
2023-01-26T19:12:08.584Z,78.75
2023-01-26T19:13:11.144Z,83.88
2023-01-26T19:14:21.922Z,74.80
2023-01-26T19:15:24.421Z,71.97
2023-01-26T19:16:28.202Z,69.53
2023-01-26T19:17:30.815Z,74.55
2023-01-26T19:18:35.636Z,78.80
2023-01-26T19:19:47.904Z,72.43
2023-01-26T19:20:55.543Z,78.57
2023-01-26T19:22:05.882Z,66.70
2023-01-26T19:23:08.535Z,72.50
2023-01-26T19:24:12.010Z,72.15
2023-01-26T19:25:14.505Z,68.93
2023-01-26T19:26:19.465Z,75.18
2023-01-26T19:27:29.915Z,78.45
2023-01-26T19:28:32.542Z,77.18
2023-01-26T19:29:36.008Z,77.93
2023-01-26T19:30:44.931Z,69.70
2023-01-26T19:31:48.519Z,80.25
2023-01-26T19:33:09.637Z,80.35
2023-01-26T19:34:16.923Z,82.43
2023-01-26T19:35:25.864Z,73.00
2023-01-26T19:36:30.236Z,80.45
2023-01-26T19:37:39.883Z,81.75
2023-01-26T19:38:42.375Z,74.88
2023-01-26T19:39:45.815Z,89.15
2023-01-26T19:40:49.597Z,87.75
2023-01-26T19:41:59.863Z,78.38
2023-01-26T19:43:02.601Z,80.88
2023-01-26T19:44:06.481Z,73.18
2023-01-26T19:45:09.600Z,78.15
2023-01-26T19:46:34.035Z,84.38
2023-01-26T19:47:50.917Z,79.10
2023-01-26T19:48:55.055Z,78.40
2023-01-26T19:49:59.055Z,82.63
2023-01-26T19:51:04.180Z,82.25
2023-01-26T19:52:07.882Z,76.03
2023-01-26T19:53:16.878Z,85.53
2023-01-26T19:54:20.675Z,71.88
2023-01-26T19:55:23.469Z,79.50
2023-01-26T19:56:28.005Z,64.22
2023-01-26T19:57:32.198Z,69.72
2023-01-26T19:58:41.853Z,70.38
2023-01-26T19:59:51.874Z,81.18
2023-01-26T20:00:59.060Z,69.90
2023-01-26T20:02:02.635Z,73.03
2023-01-26T20:03:05.195Z,68.35
2023-01-26T20:04:16.891Z,70.72
2023-01-26T20:05:21.065Z,65.45
2023-01-26T20:06:25.910Z,68.57
2023-01-26T20:07:28.761Z,67.25
2023-01-26T20:08:32.610Z,64.43
2023-01-26T20:09:43.043Z,62.08
2023-01-26T20:10:45.597Z,78.35
2023-01-26T20:11:50.799Z,82.60
2023-01-26T20:12:53.299Z,65.78
2023-01-26T20:13:57.133Z,70.03
2023-01-26T20:15:05.836Z,71.30
2023-01-26T20:16:11.029Z,64.25
2023-01-26T20:17:13.826Z,58.47
2023-01-26T20:18:17.526Z,65.93
2023-01-26T20:19:20.119Z,54.33
2023-01-26T20:20:32.040Z,65.20
2023-01-26T20:21:37.025Z,62.95
2023-01-26T20:22:40.534Z,62.50
2023-01-26T20:23:53.653Z,58.38
2023-01-26T20:24:58.079Z,57.97
2023-01-26T20:26:11.879Z,65.30
2023-01-26T20:27:14.339Z,58.83
2023-01-26T20:28:17.856Z,50.65
2023-01-26T20:29:21.004Z,53.63
2023-01-26T20:30:24.435Z,55.63
2023-01-26T20:31:34.035Z,53.35
2023-01-26T20:32:37.519Z,54.03
2023-01-26T20:33:41.103Z,49.60
2023-01-26T20:34:43.692Z,49.63
2023-01-26T20:35:54.855Z,45.10
2023-01-26T20:37:06.911Z,44.17
2023-01-26T20:38:12.478Z,45.85
2023-01-26T20:39:16.417Z,43.75
2023-01-26T20:40:19.776Z,45.53
2023-01-26T20:41:24.257Z,45.92
2023-01-26T20:42:33.859Z,46.30
2023-01-26T20:43:39.520Z,40.58
2023-01-26T20:44:44.984Z,45.08
2023-01-26T20:45:47.537Z,37.65
2023-01-26T20:46:57.862Z,37.20
2023-01-26T20:48:13.897Z,36.35
2023-01-26T20:49:24.039Z,37.63
2023-01-26T20:50:27.456Z,36.67
2023-01-26T20:51:33.923Z,37.03
2023-01-26T20:52:43.871Z,38.22
2023-01-26T20:53:48.559Z,44.85
2023-01-26T20:54:51.785Z,43.95
2023-01-26T20:55:58.690Z,36.92
2023-01-26T20:57:08.908Z,39.75
2023-01-26T20:58:12.526Z,41.80
2023-01-26T20:59:15.005Z,36.70
2023-01-26T21:00:19.470Z,38.85
2023-01-26T21:01:28.986Z,44.15
2023-01-26T21:02:38.890Z,36.30
2023-01-26T21:03:42.848Z,30.77
2023-01-26T21:04:45.388Z,39.55
2023-01-26T21:05:48.851Z,38.47
2023-01-26T21:06:54.264Z,41.30
2023-01-26T21:08:03.881Z,39.85
2023-01-26T21:09:07.458Z,43.78
2023-01-26T21:10:16.956Z,37.55
2023-01-26T21:11:20.426Z,36.78
2023-01-26T21:12:23.025Z,37.67
2023-01-26T21:13:27.954Z,34.28
2023-01-26T21:14:31.542Z,43.55
2023-01-26T21:15:40.881Z,42.05
2023-01-26T21:16:44.476Z,32.78
2023-01-26T21:17:48.111Z,34.92
2023-01-26T21:18:51.650Z,36.42
2023-01-26T21:19:55.143Z,33.75
2023-01-26T21:21:04.925Z,37.92
2023-01-26T21:22:09.758Z,34.47
2023-01-26T21:23:13.373Z,32.75
2023-01-26T21:24:17.059Z,34.95
2023-01-26T21:25:19.619Z,33.92
2023-01-26T21:26:30.926Z,35.25
2023-01-26T21:27:33.475Z,32.22
2023-01-26T21:28:37.070Z,31.65
2023-01-26T21:29:41.497Z,33.25
2023-01-26T21:30:50.914Z,31.58
2023-01-26T21:31:54.385Z,29.63
2023-01-26T21:32:57.009Z,33.92
2023-01-26T21:34:01.025Z,35.60
2023-01-26T21:35:09.948Z,31.38
2023-01-26T21:36:15.101Z,31.88
2023-01-26T21:37:19.887Z,29.27
2023-01-26T21:38:22.466Z,32.78
2023-01-26T21:39:25.919Z,31.75
2023-01-26T21:40:34.966Z,26.75
2023-01-26T21:41:56.262Z,29.55
2023-01-26T21:42:59.841Z,26.95
2023-01-26T21:44:03.321Z,31.42
2023-01-26T21:45:24.948Z,30.25
2023-01-26T21:46:34.901Z,28.95
2023-01-26T21:47:45.116Z,30.13
2023-01-26T21:48:54.324Z,27.52
2023-01-26T21:49:59.393Z,29.15
2023-01-26T21:51:26.892Z,32.95
2023-01-26T21:52:55.890Z,30.60
2023-01-26T21:53:58.397Z,25.73
2023-01-26T21:55:02.016Z,30.92
2023-01-26T21:56:04.624Z,27.50
2023-01-26T21:57:35.916Z,26.52
2023-01-26T21:58:57.032Z,26.35
2023-01-26T21:59:59.571Z,29.05
2023-01-26T22:01:09.311Z,27.88
2023-01-26T22:02:20.964Z,32.17
2023-01-26T22:03:23.572Z,29.48
2023-01-26T22:04:28.303Z,27.33
2023-01-26T22:05:31.045Z,27.58
2023-01-26T22:06:34.525Z,31.10
2023-01-26T22:07:45.959Z,33.20
2023-01-26T22:08:49.124Z,35.72
2023-01-26T22:09:52.626Z,33.30
2023-01-26T22:10:55.458Z,26.73
2023-01-26T22:11:58.906Z,37.40
2023-01-26T22:13:07.921Z,32.97
2023-01-26T22:14:15.053Z,29.65
2023-01-26T22:15:23.948Z,32.00
2023-01-26T22:16:28.039Z,40.60
2023-01-26T22:17:36.902Z,35.08
2023-01-26T22:18:41.128Z,36.83
2023-01-26T22:19:44.660Z,34.10
2023-01-26T22:20:47.174Z,30.95
2023-01-26T22:21:50.665Z,29.75
2023-01-26T22:23:00.934Z,32.88
2023-01-26T22:24:04.707Z,34.08
2023-01-26T22:25:07.475Z,39.17
2023-01-26T22:26:11.947Z,35.15
2023-01-26T22:27:21.020Z,36.25
2023-01-26T22:28:24.525Z,29.38
2023-01-26T22:29:34.922Z,36.58
2023-01-26T22:30:37.673Z,26.90
2023-01-26T22:31:41.910Z,35.35
2023-01-26T22:32:44.518Z,29.25
2023-01-26T22:33:47.997Z,33.25
2023-01-26T22:34:57.920Z,31.65
2023-01-26T22:36:01.396Z,34.00
2023-01-26T22:37:04.958Z,37.40
2023-01-26T22:38:08.843Z,31.10
2023-01-26T22:39:19.893Z,28.38
2023-01-26T22:40:28.900Z,29.30
2023-01-26T22:41:32.398Z,28.42
2023-01-26T22:42:34.981Z,35.38
2023-01-26T22:43:38.532Z,30.10
2023-01-26T22:44:48.977Z,29.90
2023-01-26T22:45:51.664Z,32.13
2023-01-26T22:47:02.070Z,27.95
2023-01-26T22:48:17.889Z,28.25
2023-01-26T22:49:21.404Z,30.73
2023-01-26T22:50:30.894Z,30.70
2023-01-26T22:51:37.575Z,25.10
2023-01-26T22:52:40.233Z,30.98
2023-01-26T22:53:45.021Z,25.48
2023-01-26T22:54:53.912Z,36.08
2023-01-26T22:56:03.916Z,26.88
2023-01-26T22:57:07.362Z,33.40
2023-01-26T22:58:10.839Z,37.47
2023-01-26T22:59:14.325Z,32.72
2023-01-26T23:00:17.194Z,29.27
2023-01-26T23:01:28.085Z,30.08
2023-01-26T23:02:31.678Z,31.25
2023-01-26T23:03:34.264Z,32.05
2023-01-26T23:04:38.068Z,29.92
2023-01-26T23:05:40.646Z,31.08
2023-01-26T23:06:57.962Z,35.85
2023-01-26T23:08:00.569Z,31.33
2023-01-26T23:09:05.506Z,34.45
2023-01-26T23:10:08.593Z,34.10
2023-01-26T23:11:14.080Z,28.20
2023-01-26T23:12:22.953Z,30.10
2023-01-26T23:13:26.426Z,32.67
2023-01-26T23:14:28.996Z,29.27
2023-01-26T23:15:32.555Z,30.88
2023-01-26T23:16:36.119Z,30.15
2023-01-26T23:17:44.926Z,31.95
2023-01-26T23:18:48.477Z,26.48
2023-01-26T23:19:57.920Z,31.45
2023-01-26T23:21:01.613Z,29.75
2023-01-26T23:22:04.634Z,26.83
2023-01-26T23:23:08.114Z,28.05
2023-01-26T23:24:12.009Z,30.45
2023-01-26T23:25:39.903Z,30.83
2023-01-26T23:26:43.433Z,23.00
2023-01-26T23:27:46.093Z,30.08
2023-01-26T23:28:49.788Z,27.02
2023-01-26T23:30:00.269Z,25.52
2023-01-26T23:31:06.205Z,22.70
2023-01-26T23:32:08.822Z,21.38
2023-01-26T23:33:12.345Z,20.00
2023-01-26T23:34:15.883Z,19.30
2023-01-26T23:35:26.543Z,17.65
2023-01-26T23:36:30.287Z,17.60
2023-01-26T23:37:38.922Z,19.35
2023-01-26T23:38:42.475Z,18.20
2023-01-26T23:39:52.920Z,18.73
2023-01-26T23:40:56.392Z,15.40
2023-01-26T23:41:58.965Z,16.30
2023-01-26T23:43:16.714Z,16.75
2023-01-26T23:44:20.784Z,16.33
2023-01-26T23:45:23.335Z,16.95
2023-01-26T23:46:26.967Z,17.15
2023-01-26T23:47:49.907Z,14.07
2023-01-26T23:48:59.899Z,16.00
2023-01-26T23:50:02.423Z,19.45
2023-01-26T23:51:12.900Z,17.95
2023-01-26T23:52:15.380Z,14.63
2023-01-26T23:53:18.802Z,13.50
2023-01-26T23:54:21.321Z,15.82
2023-01-26T23:55:26.075Z,15.65
2023-01-26T23:56:35.938Z,14.60
2023-01-26T23:57:38.406Z,16.25
2023-01-26T23:58:42.944Z,12.95
2023-01-26T23:59:45.439Z,16.92
